Time;durP1;ratioP1;P1;durP2;ratioP2;P2;SDS_P1;SDS_P2;PMS_P1;PMS_P2;Temp;Humidity;BMP_temperature;BMP_pressure;BME280_temperature;BME280_humidity;BME280_pressure;Samples;Min_cycle;Max_cycle;Signal;HPM_P1;HPM_P2
2023/05/21 00:01:52;;;;;;;12.70;11.80;;;20.20;50.50;;;;;;20958;6731;117552;-72
2023/05/21 00:04:28;;;;;;;11.70;10.80;;;19.90;50.70;;;;;;20806;6731;121121;-73
2023/05/21 00:07:03;;;;;;;11.87;11.03;;;19.50;51.30;;;;;;20965;6729;117160;-72
2023/05/21 00:09:39;;;;;;;13.20;12.30;;;19.10;51.70;;;;;;20741;6724;303798;-72
2023/05/21 00:12:14;;;;;;;13.63;12.70;;;19.20;52.40;;;;;;20810;6712;276010;-72
2023/05/21 00:14:50;;;;;;;13.38;12.48;;;19.50;52.00;;;;;;20533;6727;277764;-74
2023/05/21 00:17:25;;;;;;;14.02;13.13;;;19.70;51.70;;;;;;20757;6722;334253;-72
2023/05/21 00:20:04;;;;;;;14.20;13.20;;;19.80;51.40;;;;;;20767;6722;305316;-72
2023/05/21 00:22:36;;;;;;;13.73;12.82;;;19.90;51.20;;;;;;20759;6721;333851;-74
2023/05/21 00:25:12;;;;;;;13.30;12.30;;;19.90;51.10;;;;;;20909;6727;121341;-72
2023/05/21 00:27:48;;;;;;;12.27;11.27;;;19.60;51.20;;;;;;20925;6727;117389;-71
2023/05/21 00:30:23;;;;;;;12.27;11.37;;;19.20;51.80;;;;;;20968;6712;117271;-73
2023/05/21 00:33:01;;;;;;;11.57;10.67;;;18.80;52.30;;;;;;20895;6727;117721;-74
2023/05/21 00:35:34;;;;;;;11.27;10.47;;;18.60;52.70;;;;;;20859;6746;121908;-72
2023/05/21 00:38:11;;;;;;;13.38;12.48;;;18.70;53.60;;;;;;20673;6741;334848;-72
2023/05/21 00:40:46;;;;;;;13.23;12.32;;;18.60;53.50;;;;;;20708;6743;334941;-74
2023/05/21 00:43:25;;;;;;;13.63;12.73;;;19.40;52.50;;;;;;20611;6731;283473;-73
2023/05/21 00:45:58;;;;;;;13.82;12.82;;;19.30;52.40;;;;;;20710;6731;297538;-73
2023/05/21 00:48:34;;;;;;;14.23;13.27;;;19.50;52.00;;;;;;20634;6750;306258;-73
2023/05/21 00:51:09;;;;;;;14.35;13.35;;;19.70;51.80;;;;;;20708;6721;279993;-73
2023/05/21 00:53:46;;;;;;;13.93;12.90;;;19.80;51.60;;;;;;20623;6721;278077;-73
2023/05/21 00:56:22;;;;;;;11.87;10.93;;;19.80;51.40;;;;;;20985;6710;117149;-73
2023/05/21 00:58:57;;;;;;;11.97;11.07;;;19.50;51.60;;;;;;20966;6710;117095;-73
2023/05/21 01:01:35;;;;;;;12.00;11.10;;;19.00;52.20;;;;;;20954;6710;117053;-72
2023/05/21 01:04:08;;;;;;;12.70;11.73;;;18.70;52.60;;;;;;20812;6710;117551;-75
2023/05/21 01:06:44;;;;;;;14.33;13.40;;;18.40;52.90;;;;;;20707;6731;280298;-73
2023/05/21 01:09:20;;;;;;;14.43;13.35;;;18.90;53.20;;;;;;20638;6744;305622;-72
2023/05/21 01:11:59;;;;;;;15.00;13.63;;;18.90;53.20;;;;;;20906;6732;118432;-73
2023/05/21 01:14:33;;;;;;;13.30;12.20;;;18.80;53.00;;;;;;20718;6732;119744;-74
2023/05/21 01:17:09;;;;;;;13.33;12.33;;;18.40;53.30;;;;;;20913;6732;120784;-73
2023/05/21 01:19:44;;;;;;;13.57;12.57;;;18.20;53.70;;;;;;20941;6720;118258;-73
2023/05/21 01:22:19;;;;;;;13.23;12.10;;;18.00;54.00;;;;;;20939;6720;117100;-74
2023/05/21 01:24:55;;;;;;;15.52;14.10;;;17.80;54.20;;;;;;20512;6732;282159;-72
2023/05/21 01:27:32;;;;;;;13.87;12.77;;;18.10;55.00;;;;;;20881;6732;116998;-72
2023/05/21 01:30:07;;;;;;;15.68;14.38;;;18.10;54.50;;;;;;20695;6732;276736;-72
2023/05/21 01:32:59;;;;;;;13.57;12.50;;;18.30;54.60;;;;;;20888;6731;117038;-73
2023/05/21 01:35:35;;;;;;;13.93;12.67;;;18.20;54.30;;;;;;20934;6716;119264;-72
2023/05/21 01:38:24;;;;;;;14.00;12.87;;;18.00;54.50;;;;;;20956;6716;122716;-73
2023/05/21 01:41:03;;;;;;;15.20;14.20;;;18.00;55.30;;;;;;20816;6692;304396;-74
2023/05/21 01:43:39;;;;;;;14.57;13.57;;;18.00;55.20;;;;;;20629;6711;302233;-72
2023/05/21 01:46:14;;;;;;;15.57;14.43;;;18.40;54.60;;;;;;20783;6701;304378;-74
2023/05/21 01:48:50;;;;;;;15.50;14.50;;;18.70;54.00;;;;;;20802;6697;275163;-73
2023/05/21 01:51:25;;;;;;;14.75;13.55;;;18.90;53.60;;;;;;20770;6697;304064;-72
2023/05/21 01:54:01;;;;;;;14.50;13.23;;;19.00;53.30;;;;;;20887;6697;117619;-73
2023/05/21 01:56:40;;;;;;;16.10;14.80;;;18.70;53.30;;;;;;20810;6697;303406;-75
2023/05/21 01:59:12;;;;;;;16.00;14.70;;;18.70;53.80;;;;;;20821;6685;285192;-72
2023/05/21 02:01:48;;;;;;;14.70;13.77;;;18.90;53.70;;;;;;20827;6697;301404;-72
2023/05/21 02:04:24;;;;;;;13.20;12.20;;;18.80;53.70;;;;;;20893;6682;117353;-72
2023/05/21 02:07:00;;;;;;;14.20;13.10;;;18.70;53.60;;;;;;21020;6697;116940;-73
2023/05/21 02:09:35;;;;;;;14.27;12.90;;;18.40;54.10;;;;;;20998;6697;119815;-72
2023/05/21 02:12:11;;;;;;;16.67;15.48;;;18.20;55.20;;;;;;20794;6697;308777;-73
2023/05/21 02:14:49;;;;;;;14.50;13.40;;;18.10;55.10;;;;;;20836;6697;117901;-72
2023/05/21 02:17:23;;;;;;;14.37;13.27;;;18.10;55.00;;;;;;21004;6692;127355;-73
2023/05/21 02:20:06;;;;;;;17.00;15.70;;;17.80;55.10;;;;;;20848;6682;278741;-73
2023/05/21 02:22:34;;;;;;;16.40;15.20;;;18.00;55.70;;;;;;20796;6697;303684;-73
2023/05/21 02:25:09;;;;;;;17.35;16.10;;;18.30;55.20;;;;;;20779;6697;308112;-72
2023/05/21 02:27:52;;;;;;;17.40;16.20;;;18.60;54.80;;;;;;20825;6687;276713;-72
2023/05/21 02:30:25;;;;;;;17.70;16.23;;;18.80;53.90;;;;;;20818;6692;275062;-72
2023/05/21 02:33:02;;;;;;;16.93;15.70;;;18.80;53.90;;;;;;20762;6697;276660;-72
2023/05/21 02:35:37;;;;;;;15.03;13.93;;;18.90;53.70;;;;;;21569;6474;67304;-71
2023/05/21 02:38:04;;;;;;;14.30;13.13;;;18.20;54.60;;;;;;20981;6762;117005;-71
2023/05/21 02:40:29;;;;;;;14.30;13.23;;;18.10;54.40;;;;;;20937;6777;118247;-71
2023/05/21 02:42:55;;;;;;;14.33;13.23;;;17.80;55.60;;;;;;20940;6762;117293;-72
2023/05/21 02:45:21;;;;;;;14.50;13.27;;;17.40;55.80;;;;;;20776;6815;123399;-72
2023/05/21 02:47:48;;;;;;;16.63;15.50;;;17.40;55.70;;;;;;20606;6815;277424;-76
2023/05/21 02:50:15;;;;;;;15.90;14.80;;;18.00;55.90;;;;;;20598;6815;335696;-72
2023/05/21 02:52:40;;;;;;;13.37;12.40;;;17.90;55.80;;;;;;20807;6815;117476;-73
2023/05/21 02:55:06;;;;;;;15.53;14.30;;;17.90;55.50;;;;;;20799;6821;117300;-73
2023/05/21 02:57:32;;;;;;;14.87;13.67;;;17.60;55.70;;;;;;20786;6802;117344;-74
2023/05/21 02:59:57;;;;;;;15.80;14.70;;;17.40;56.00;;;;;;20648;6802;315790;-72
2023/05/21 03:02:23;;;;;;;13.83;12.83;;;17.60;56.50;;;;;;20853;6802;117442;-73
2023/05/21 03:04:49;;;;;;;15.50;14.13;;;17.60;56.30;;;;;;20862;6802;117204;-74
2023/05/21 03:07:17;;;;;;;15.40;14.20;;;17.40;56.30;;;;;;20831;6802;117433;-74
2023/05/21 03:09:41;;;;;;;15.17;13.97;;;17.20;56.50;;;;;;20852;6802;117472;-73
2023/05/21 03:12:06;;;;;;;14.83;13.73;;;17.00;56.60;;;;;;20856;6802;117915;-74
2023/05/21 03:14:32;;;;;;;14.63;13.40;;;16.90;57.50;;;;;;20850;6802;117803;-72
2023/05/21 03:16:57;;;;;;;16.40;15.10;;;16.80;57.70;;;;;;20632;6804;343587;-73
2023/05/21 03:19:23;;;;;;;23.38;21.55;;;17.10;58.20;;;;;;20625;6789;304689;-72
2023/05/21 03:21:49;;;;;;;15.50;14.20;;;17.50;57.40;;;;;;20886;6789;117547;-73
2023/05/21 03:24:15;;;;;;;18.17;16.57;;;17.60;56.90;;;;;;20632;6804;306218;-73
2023/05/21 03:26:40;;;;;;;15.30;14.20;;;17.60;56.90;;;;;;20853;6804;117320;-73
2023/05/21 03:29:07;;;;;;;15.30;14.00;;;17.30;56.80;;;;;;20848;6804;117329;-73
2023/05/21 03:31:32;;;;;;;18.23;16.83;;;17.30;56.80;;;;;;20647;6793;319459;-72
2023/05/21 03:33:58;;;;;;;16.40;15.00;;;17.40;56.80;;;;;;20792;6822;117822;-73
2023/05/21 03:36:23;;;;;;;17.48;16.17;;;17.40;56.60;;;;;;20624;6810;306998;-72
2023/05/21 03:38:49;;;;;;;16.33;14.83;;;17.50;56.60;;;;;;20815;6814;117905;-73
2023/05/21 03:41:15;;;;;;;15.33;14.07;;;17.40;56.40;;;;;;20794;6806;117393;-72
2023/05/21 03:43:40;;;;;;;15.43;14.07;;;17.10;56.70;;;;;;20881;6795;117449;-73
2023/05/21 03:46:05;;;;;;;15.67;14.23;;;16.90;57.00;;;;;;20844;6805;117171;-74
2023/05/21 03:48:31;;;;;;;15.63;14.30;;;16.70;57.30;;;;;;20894;6795;117180;-73
2023/05/21 03:50:57;;;;;;;17.77;16.47;;;16.60;57.50;;;;;;20634;6806;277213;-73
2023/05/21 03:53:22;;;;;;;17.98;16.67;;;16.80;57.90;;;;;;20621;6806;306532;-73
2023/05/21 03:55:53;;;;;;;18.10;16.80;;;17.20;57.30;;;;;;20683;6791;306693;-72
2023/05/21 03:58:16;;;;;;;17.17;15.80;;;17.50;56.80;;;;;;20674;6791;311635;-74
2023/05/21 04:00:44;;;;;;;18.10;16.77;;;17.80;56.20;;;;;;20685;6791;282212;-72
2023/05/21 04:03:10;;;;;;;17.43;16.03;;;17.80;55.80;;;;;;20678;6791;281525;-72
2023/05/21 04:05:34;;;;;;;15.82;14.63;;;17.90;55.60;;;;;;20863;6791;121259;-72
2023/05/21 04:07:59;;;;;;;15.23;13.93;;;17.70;55.80;;;;;;20801;6821;117806;-73
2023/05/21 04:10:25;;;;;;;17.40;16.10;;;17.40;56.40;;;;;;20635;6806;283388;-73
2023/05/21 04:12:51;;;;;;;18.87;17.30;;;17.40;56.90;;;;;;20628;6806;313362;-73
2023/05/21 04:15:17;;;;;;;18.35;16.95;;;17.70;56.80;;;;;;20612;6806;339688;-73
2023/05/21 04:17:41;;;;;;;15.83;14.63;;;17.90;56.40;;;;;;20839;6806;121362;-72
2023/05/21 04:20:07;;;;;;;15.57;14.37;;;17.70;56.30;;;;;;20846;6806;117337;-72
2023/05/21 04:22:34;;;;;;;17.23;16.00;;;17.40;56.70;;;;;;20626;6806;308185;-73
2023/05/21 04:24:58;;;;;;;17.00;15.68;;;17.50;57.00;;;;;;20628;6806;277952;-72
2023/05/21 04:27:24;;;;;;;14.43;13.40;;;17.80;56.60;;;;;;20826;6806;120321;-73
2023/05/21 04:29:49;;;;;;;16.33;15.13;;;17.80;56.50;;;;;;20618;6806;277434;-73
2023/05/21 04:32:16;;;;;;;18.23;16.83;;;17.80;56.80;;;;;;20583;6821;340706;-72
2023/05/21 04:34:41;;;;;;;15.70;14.50;;;18.10;56.10;;;;;;20791;6821;117429;-73
2023/05/21 04:37:06;;;;;;;16.77;15.57;;;18.00;56.10;;;;;;20576;6821;336714;-73
2023/05/21 04:39:33;;;;;;;17.30;16.00;;;18.00;56.20;;;;;;20583;6817;305813;-72
2023/05/21 04:41:57;;;;;;;16.45;15.35;;;18.20;55.90;;;;;;20590;6815;344460;-72
2023/05/21 04:44:23;;;;;;;18.50;17.20;;;18.40;55.60;;;;;;20649;6804;276331;-72
2023/05/21 04:46:49;;;;;;;16.73;15.52;;;18.60;55.30;;;;;;20586;6821;306214;-72
2023/05/21 04:49:15;;;;;;;15.23;14.03;;;18.70;55.10;;;;;;20786;6818;117746;-72
2023/05/21 04:51:41;;;;;;;17.87;16.63;;;18.50;55.20;;;;;;20581;6821;314742;-72
2023/05/21 04:54:06;;;;;;;15.57;14.17;;;18.50;55.40;;;;;;20854;6804;118191;-75
2023/05/21 04:56:33;;;;;;;14.93;13.83;;;18.00;55.80;;;;;;20791;6819;117761;-73
2023/05/21 04:58:58;;;;;;;16.20;15.00;;;18.00;55.80;;;;;;20759;6818;119472;-74
2023/05/21 05:01:25;;;;;;;16.08;14.60;;;17.80;56.40;;;;;;20751;6821;119503;-77
2023/05/21 05:03:50;;;;;;;14.23;13.13;;;17.60;56.70;;;;;;20846;6803;117624;-77
2023/05/21 05:06:16;;;;;;;17.50;16.20;;;17.70;57.20;;;;;;20579;6821;280503;-74
2023/05/21 05:08:41;;;;;;;14.33;13.33;;;17.60;57.10;;;;;;20841;6803;117694;-75
2023/05/21 05:11:07;;;;;;;16.17;14.65;;;17.70;56.80;;;;;;20802;6821;117381;-78
2023/05/21 05:13:32;;;;;;;16.57;15.27;;;17.60;57.00;;;;;;20611;6803;278539;-76
2023/05/21 05:16:00;;;;;;;14.27;13.27;;;17.80;56.60;;;;;;20789;6821;123456;-72
2023/05/21 05:18:25;;;;;;;16.37;15.18;;;17.80;56.60;;;;;;20636;6803;279407;-71
2023/05/21 05:20:51;;;;;;;16.55;15.32;;;18.00;56.50;;;;;;20583;6821;280819;-73
2023/05/21 05:23:17;;;;;;;17.80;16.50;;;18.60;55.50;;;;;;20620;6803;310742;-75
2023/05/21 05:25:43;;;;;;;17.60;16.30;;;18.60;55.50;;;;;;20580;6821;338507;-74
2023/05/21 05:28:08;;;;;;;15.80;14.47;;;18.80;55.10;;;;;;20856;6803;117061;-73
2023/05/21 05:30:35;;;;;;;14.90;13.77;;;18.60;55.10;;;;;;20800;6821;117464;-73
2023/05/21 05:32:59;;;;;;;14.83;13.57;;;18.40;55.70;;;;;;20849;6803;116678;-73
2023/05/21 05:35:25;;;;;;;17.67;16.40;;;18.10;56.20;;;;;;20577;6821;281969;-73
2023/05/21 05:37:50;;;;;;;16.87;15.50;;;18.30;56.10;;;;;;20807;6818;117478;-74
2023/05/21 05:40:17;;;;;;;18.08;16.77;;;18.50;55.90;;;;;;20589;6821;277146;-75
2023/05/21 05:42:42;;;;;;;14.87;13.77;;;18.50;55.90;;;;;;20848;6804;117271;-75
2023/05/21 05:45:08;;;;;;;17.53;16.33;;;18.50;55.80;;;;;;20579;6821;316107;-75
2023/05/21 05:47:34;;;;;;;16.73;15.60;;;18.60;55.70;;;;;;20618;6804;277573;-76
2023/05/21 05:49:59;;;;;;;14.98;13.73;;;18.90;55.70;;;;;;20797;6818;117770;-77
2023/05/21 05:52:26;;;;;;;16.77;15.67;;;18.90;55.80;;;;;;20587;6821;277820;-76
2023/05/21 05:54:51;;;;;;;16.63;15.43;;;18.90;55.80;;;;;;20629;6804;277324;-77
2023/05/21 05:57:17;;;;;;;14.20;13.18;;;19.10;55.50;;;;;;20784;6821;119674;-77
2023/05/21 05:59:43;;;;;;;14.73;13.50;;;19.00;55.40;;;;;;20815;6818;117701;-77
2023/05/21 06:02:10;;;;;;;16.43;15.13;;;18.70;55.80;;;;;;20585;6821;307572;-78
2023/05/21 06:04:36;;;;;;;18.13;16.70;;;18.90;55.60;;;;;;20854;6804;118323;-80
2023/05/21 06:07:03;;;;;;;18.70;17.37;;;18.90;55.50;;;;;;20558;6821;329831;-77
2023/05/21 06:09:30;;;;;;;15.13;13.93;;;19.00;55.40;;;;;;20818;6802;188593;-77
2023/05/21 06:11:57;;;;;;;16.17;15.00;;;19.10;56.10;;;;;;20571;6820;306689;-77
2023/05/21 06:14:23;;;;;;;15.93;14.73;;;19.10;55.50;;;;;;20849;6803;118456;-78
2023/05/21 06:16:49;;;;;;;17.87;16.20;;;19.10;55.40;;;;;;20797;6821;117785;-76
2023/05/21 06:19:15;;;;;;;16.20;14.60;;;18.90;55.80;;;;;;20780;6818;119013;-75
2023/05/21 06:21:40;;;;;;;14.77;13.47;;;18.90;55.80;;;;;;20802;6821;118031;-77
2023/05/21 06:24:06;;;;;;;16.48;15.35;;;18.80;56.10;;;;;;20633;6803;337201;-78
2023/05/21 06:26:31;;;;;;;14.50;13.40;;;19.00;55.90;;;;;;20795;6821;119125;-77
2023/05/21 06:28:58;;;;;;;13.60;12.37;;;19.20;55.90;;;;;;20848;6803;121566;-76
2023/05/21 06:31:23;;;;;;;16.77;15.57;;;19.20;55.90;;;;;;20557;6821;307422;-76
2023/05/21 06:33:49;;;;;;;16.58;15.45;;;19.60;55.70;;;;;;20591;6818;336554;-75
2023/05/21 06:36:16;;;;;;;16.03;14.63;;;20.00;54.70;;;;;;20814;6821;66654;-75
2023/05/21 06:38:41;;;;;;;14.87;13.87;;;20.20;54.60;;;;;;20638;6803;310368;-76
2023/05/21 06:41:07;;;;;;;13.87;12.97;;;20.60;53.60;;;;;;20799;6821;117570;-76
2023/05/21 06:43:32;;;;;;;15.20;14.10;;;20.80;53.60;;;;;;20630;6803;276822;-78
2023/05/21 06:45:58;;;;;;;15.07;14.03;;;21.10;53.00;;;;;;20799;6821;117866;-76
2023/05/21 06:48:23;;;;;;;16.60;15.40;;;21.30;53.10;;;;;;20628;6804;306817;-74
2023/05/21 06:50:49;;;;;;;16.43;15.20;;;21.50;52.50;;;;;;20584;6821;318554;-75
2023/05/21 06:53:16;;;;;;;15.47;14.17;;;22.00;51.80;;;;;;20833;6804;117498;-74
2023/05/21 06:55:45;;;;;;;16.02;14.73;;;22.20;52.00;;;;;;20590;6821;306376;-78
2023/05/21 06:58:11;;;;;;;16.27;15.15;;;22.50;50.70;;;;;;20640;6804;279392;-78
2023/05/21 07:00:38;;;;;;;17.73;16.43;;;22.90;49.70;;;;;;20578;6821;278092;-81
2023/05/21 07:03:04;;;;;;;19.20;17.80;;;23.20;49.40;;;;;;20636;6804;335914;-76
2023/05/21 07:05:29;;;;;;;18.23;16.93;;;23.40;48.50;;;;;;20773;6821;122929;-76
2023/05/21 07:07:55;;;;;;;19.12;17.73;;;23.30;48.90;;;;;;20631;6804;310631;-77
2023/05/21 07:10:21;;;;;;;16.83;15.53;;;23.20;48.30;;;;;;20788;6821;117519;-76
2023/05/21 07:12:46;;;;;;;20.37;18.75;;;23.10;48.80;;;;;;20631;6804;340677;-84
2023/05/21 07:15:12;;;;;;;18.37;16.97;;;23.10;48.40;;;;;;20778;6821;118418;-79
2023/05/21 07:17:37;;;;;;;20.60;19.00;;;22.90;48.60;;;;;;20587;6818;306627;-75
2023/05/21 07:20:06;;;;;;;19.87;18.47;;;22.90;48.60;;;;;;20582;6819;311117;-77
2023/05/21 07:22:29;;;;;;;20.23;18.60;;;23.10;48.80;;;;;;20615;6803;276160;-75
2023/05/21 07:24:54;;;;;;;29.33;26.50;;;23.30;48.40;;;;;;20793;6821;117270;-78
2023/05/21 07:27:20;;;;;;;22.75;20.98;;;23.30;48.70;;;;;;20614;6803;306371;-80
2023/05/21 07:29:46;;;;;;;17.58;16.30;;;23.20;48.60;;;;;;20582;6821;320493;-77
2023/05/21 07:32:12;;;;;;;17.17;15.90;;;23.50;48.30;;;;;;20630;6803;335680;-78
2023/05/21 07:34:37;;;;;;;17.67;16.48;;;23.70;48.00;;;;;;20583;6818;307669;-78
2023/05/21 07:37:03;;;;;;;17.10;15.90;;;23.90;48.30;;;;;;20797;6821;118118;-78
2023/05/21 07:39:29;;;;;;;18.20;17.00;;;23.80;48.40;;;;;;20612;6803;306458;-79
2023/05/21 07:41:55;;;;;;;17.13;15.77;;;23.70;48.00;;;;;;20795;6821;117616;-80
2023/05/21 07:44:20;;;;;;;15.63;14.53;;;23.70;48.00;;;;;;20847;6803;117604;-78
2023/05/21 07:46:47;;;;;;;17.13;15.73;;;23.50;48.50;;;;;;20797;6821;118219;-79
2023/05/21 07:49:15;;;;;;;16.73;15.47;;;23.50;49.20;;;;;;20837;6803;117665;-84
2023/05/21 07:51:40;;;;;;;19.50;17.85;;;23.50;49.40;;;;;;20581;6821;307521;-78
2023/05/21 07:54:05;;;;;;;17.80;16.50;;;23.90;48.20;;;;;;20624;6803;309451;-80
2023/05/21 07:56:42;;;;;;;16.83;15.57;;;24.40;46.90;;;;;;20735;6821;118335;-77
2023/05/21 07:59:08;;;;;;;17.05;15.85;;;24.50;46.90;;;;;;20579;6803;307120;-76
2023/05/21 08:01:37;;;;;;;17.67;16.48;;;24.80;45.90;;;;;;20539;6818;306584;-77
2023/05/21 08:04:05;;;;;;;14.40;13.33;;;25.20;45.10;;;;;;20809;6803;117179;-76
2023/05/21 08:06:32;;;;;;;14.70;13.50;;;25.20;45.40;;;;;;20666;6818;117778;-77
2023/05/21 08:09:05;;;;;;;16.47;15.37;;;25.00;46.00;;;;;;20606;6818;308979;-76
2023/05/21 08:11:30;;;;;;;14.27;13.20;;;25.20;44.90;;;;;;20768;6818;119965;-76
2023/05/21 08:13:58;;;;;;;13.27;12.27;;;25.30;45.10;;;;;;20867;6803;117846;-75
2023/05/21 08:16:25;;;;;;;15.47;14.27;;;25.30;45.20;;;;;;20606;6817;307758;-76
2023/05/21 08:18:58;;;;;;;15.80;14.70;;;25.60;43.60;;;;;;20651;6803;308160;-75
2023/05/21 08:21:34;;;;;;;15.57;14.37;;;26.00;42.60;;;;;;20555;6818;310423;-75
2023/05/21 08:24:04;;;;;;;16.23;15.03;;;26.30;42.00;;;;;;20414;6818;310565;-76
2023/05/21 08:26:31;;;;;;;14.60;13.50;;;26.60;41.80;;;;;;20722;6817;114685;-77
2023/05/21 08:29:06;;;;;;;15.67;14.57;;;26.50;42.50;;;;;;20506;6803;280558;-77
2023/05/21 08:31:39;;;;;;;15.40;14.37;;;26.50;41.30;;;;;;20433;6816;316278;-76
2023/05/21 08:34:05;;;;;;;14.67;13.40;;;26.70;41.30;;;;;;20678;6817;114690;-75
2023/05/21 08:36:32;;;;;;;15.43;14.30;;;26.60;41.60;;;;;;20603;6802;277264;-75
2023/05/21 08:38:58;;;;;;;14.20;13.30;;;26.60;41.20;;;;;;20782;6817;121504;-76
2023/05/21 08:41:25;;;;;;;13.47;12.57;;;26.60;41.90;;;;;;20327;6817;121439;-76
2023/05/21 08:43:56;;;;;;;13.63;12.73;;;26.50;42.20;;;;;;20821;6803;67856;-76
2023/05/21 08:46:28;;;;;;;16.50;15.20;;;26.30;42.40;;;;;;20415;6817;309811;-76
2023/05/21 08:49:14;;;;;;;15.77;14.48;;;26.50;41.80;;;;;;20529;6803;335134;-75
2023/05/21 08:51:43;;;;;;;15.55;14.50;;;27.00;42.50;;;;;;20454;6818;336651;-75
2023/05/21 08:54:15;;;;;;;14.68;13.80;;;27.40;41.40;;;;;;20548;6817;278728;-75
2023/05/21 08:56:54;;;;;;;14.53;13.33;;;27.50;41.60;;;;;;20723;6818;67464;-75
2023/05/21 08:59:23;;;;;;;14.43;13.37;;;27.50;41.40;;;;;;20748;6818;74181;-75
2023/05/21 09:01:54;;;;;;;14.70;13.50;;;27.30;41.80;;;;;;20587;6803;305216;-75
2023/05/21 09:04:35;;;;;;;14.90;13.80;;;27.50;42.30;;;;;;20674;6818;119988;-74
2023/05/21 09:07:01;;;;;;;14.70;13.63;;;27.60;42.00;;;;;;20538;6803;309171;-75
2023/05/21 09:09:39;;;;;;;14.63;13.57;;;27.80;40.00;;;;;;20442;6807;305794;-75
2023/05/21 09:12:15;;;;;;;14.53;13.53;;;28.10;38.90;;;;;;20509;6818;310095;-74
2023/05/21 09:14:53;;;;;;;14.18;13.07;;;28.40;40.10;;;;;;20478;6818;321509;-74
2023/05/21 09:17:28;;;;;;;15.23;14.13;;;28.80;37.50;;;;;;20444;6818;309542;-75
2023/05/21 09:22:52;;;;;;;12.70;11.87;;;28.60;38.00;;;;;;20780;6803;114411;-74
2023/05/21 09:25:20;;;;;;;15.37;14.27;;;28.20;38.90;;;;;;20543;6818;308896;-75
2023/05/21 09:27:46;;;;;;;13.40;12.40;;;28.20;38.30;;;;;;20746;6818;117694;-75
2023/05/21 09:30:12;;;;;;;13.47;12.47;;;28.10;38.90;;;;;;20837;6803;117386;-74
2023/05/21 09:32:38;;;;;;;14.33;13.30;;;27.90;39.40;;;;;;20759;6818;124897;-74
2023/05/21 09:35:11;;;;;;;12.97;12.07;;;27.80;39.70;;;;;;20833;6803;118221;-76
2023/05/21 09:37:36;;;;;;;14.10;13.20;;;27.70;39.90;;;;;;20559;6818;326744;-76
2023/05/21 09:40:03;;;;;;;14.03;13.23;;;27.90;39.40;;;;;;20624;6803;280973;-74
2023/05/21 09:42:28;;;;;;;12.80;12.00;;;28.20;39.40;;;;;;20744;6818;117476;-76
2023/05/21 09:44:53;;;;;;;13.70;12.80;;;28.20;39.30;;;;;;20615;6801;298291;-75
2023/05/21 09:47:20;;;;;;;13.50;12.30;;;28.40;39.00;;;;;;20555;6817;310589;-75
2023/05/21 09:49:44;;;;;;;12.87;11.43;;;28.60;38.10;;;;;;20779;6817;117442;-75
2023/05/21 09:52:10;;;;;;;13.90;12.83;;;28.40;38.60;;;;;;20555;6817;291335;-76
2023/05/21 09:54:35;;;;;;;13.00;12.13;;;28.40;38.60;;;;;;20823;6803;117842;-76
2023/05/21 09:57:01;;;;;;;13.97;13.17;;;28.30;38.60;;;;;;20569;6817;277701;-75
2023/05/21 09:59:37;;;;;;;14.40;13.30;;;28.20;38.40;;;;;;20603;6803;308222;-75
2023/05/21 10:02:03;;;;;;;13.10;12.30;;;28.30;38.10;;;;;;20768;6817;121699;-74
2023/05/21 10:04:31;;;;;;;14.17;13.13;;;27.80;39.00;;;;;;20799;6803;117438;-77
2023/05/21 10:06:57;;;;;;;13.27;12.37;;;27.50;39.30;;;;;;20748;6818;117591;-76
2023/05/21 10:09:23;;;;;;;13.37;12.47;;;27.50;39.30;;;;;;20543;6803;305586;-74
2023/05/21 10:11:48;;;;;;;13.75;12.85;;;27.50;40.00;;;;;;20474;6818;344816;-76
2023/05/21 10:14:21;;;;;;;14.37;13.40;;;27.70;38.80;;;;;;20592;6803;306530;-74
2023/05/21 10:16:46;;;;;;;13.77;12.87;;;27.70;38.70;;;;;;20546;6818;277599;-74
2023/05/21 10:19:15;;;;;;;14.65;13.55;;;27.80;38.70;;;;;;20598;6803;313888;-78
2023/05/21 10:21:40;;;;;;;12.97;11.97;;;28.00;38.80;;;;;;20751;6818;117614;-76
2023/05/21 10:24:07;;;;;;;14.67;13.60;;;27.80;38.70;;;;;;20622;6803;281356;-79
2023/05/21 10:26:33;;;;;;;13.70;12.77;;;27.80;38.90;;;;;;20580;6818;301603;-77
2023/05/21 10:29:00;;;;;;;13.80;12.70;;;27.90;39.20;;;;;;20826;6803;118257;-80
2023/05/21 10:31:26;;;;;;;12.60;11.43;;;27.70;39.20;;;;;;20752;6818;118016;-77
2023/05/21 10:33:51;;;;;;;12.90;12.02;;;27.50;39.80;;;;;;20567;6803;334909;-77
2023/05/21 10:36:24;;;;;;;13.82;12.90;;;27.60;40.00;;;;;;20572;6818;320775;-81
2023/05/21 10:38:49;;;;;;;12.03;11.13;;;27.80;39.50;;;;;;20769;6818;118433;-80
2023/05/21 10:41:14;;;;;;;12.43;11.63;;;27.70;39.30;;;;;;20553;6818;276855;-79
2023/05/21 10:44:21;;;;;;;13.07;12.25;;;28.10;39.40;;;;;;20609;6803;325377;-76
2023/05/21 10:46:55;;;;;;;13.73;12.73;;;28.00;38.60;;;;;;20564;6818;298569;-78
2023/05/21 10:49:24;;;;;;;13.40;12.50;;;28.20;38.60;;;;;;20565;6818;276621;-75
2023/05/21 10:52:00;;;;;;;12.77;11.80;;;28.30;38.30;;;;;;20729;6818;118618;-76
2023/05/21 10:54:58;;;;;;;12.23;11.43;;;28.10;38.60;;;;;;20608;6801;306853;-76
2023/05/21 10:57:24;;;;;;;12.70;11.90;;;28.10;38.90;;;;;;20542;6817;278249;-78
2023/05/21 10:59:50;;;;;;;11.57;10.80;;;28.30;38.40;;;;;;20584;6802;306094;-76
2023/05/21 11:02:16;;;;;;;12.00;11.20;;;28.40;37.90;;;;;;20573;6817;310886;-77
2023/05/21 11:04:47;;;;;;;11.30;10.37;;;28.50;38.10;;;;;;20826;6802;117110;-77
2023/05/21 11:07:10;;;;;;;11.03;10.23;;;28.40;37.90;;;;;;20758;6817;118097;-77
2023/05/21 11:09:36;;;;;;;11.00;10.20;;;28.20;38.10;;;;;;20829;6803;119929;-79
2023/05/21 11:12:03;;;;;;;11.23;10.52;;;28.00;38.50;;;;;;20554;6817;306759;-78
2023/05/21 11:14:34;;;;;;;10.87;10.27;;;28.10;37.50;;;;;;20625;6803;284729;-76
2023/05/21 11:16:59;;;;;;;11.23;10.45;;;28.30;37.70;;;;;;20564;6818;336062;-80
2023/05/21 11:19:35;;;;;;;9.47;8.87;;;28.60;36.90;;;;;;20791;6803;118139;-77
2023/05/21 11:22:00;;;;;;;10.73;10.10;;;28.60;37.10;;;;;;20553;6818;305757;-78
2023/05/21 11:24:27;;;;;;;10.53;9.83;;;28.70;37.50;;;;;;20767;6818;121079;-78
2023/05/21 11:27:03;;;;;;;10.23;9.63;;;28.50;37.20;;;;;;20582;6817;281476;-80
2023/05/21 11:29:39;;;;;;;9.20;8.60;;;28.60;36.30;;;;;;20767;6818;122764;-81
2023/05/21 11:32:04;;;;;;;10.10;9.50;;;28.50;35.70;;;;;;20611;6803;309640;-81
2023/05/21 11:34:36;;;;;;;9.77;9.17;;;28.40;36.20;;;;;;20778;6818;117101;-79
2023/05/21 11:37:26;;;;;;;9.90;9.30;;;28.40;36.40;;;;;;20576;6818;307199;-83
2023/05/21 11:39:41;;;;;;;9.17;8.67;;;28.50;36.80;;;;;;20424;6803;276474;-77
2023/05/21 11:42:06;;;;;;;9.35;8.85;;;28.70;36.70;;;;;;20596;6818;306507;-78
2023/05/21 11:44:48;;;;;;;9.10;8.60;;;28.90;36.80;;;;;;20781;6818;122080;-77
2023/05/21 11:47:14;;;;;;;9.33;8.67;;;28.80;36.60;;;;;;20597;6803;280113;-80
2023/05/21 11:49:39;;;;;;;9.55;8.95;;;28.90;36.10;;;;;;20581;6818;310182;-83
2023/05/21 11:52:05;;;;;;;9.50;8.80;;;29.00;36.30;;;;;;20574;6818;307115;-82
2023/05/21 11:54:32;;;;;;;8.80;8.23;;;29.10;34.80;;;;;;20820;6803;119169;-82
2023/05/21 11:56:56;;;;;;;8.07;7.50;;;28.90;34.60;;;;;;20773;6818;116902;-82
2023/05/21 11:59:22;;;;;;;8.10;7.60;;;28.60;34.90;;;;;;20592;6818;277126;-83
2023/05/21 12:01:51;;;;;;;8.07;7.53;;;28.50;34.50;;;;;;20565;6803;310443;-86
2023/05/21 12:04:16;;;;;;;8.03;7.50;;;28.70;34.10;;;;;;20354;6818;277029;-81
2023/05/21 12:06:42;;;;;;;7.40;7.00;;;28.80;33.70;;;;;;20836;6816;117547;-78
2023/05/21 12:09:09;;;;;;;7.93;7.33;;;28.70;34.00;;;;;;20871;6802;117221;-81
2023/05/21 12:11:38;;;;;;;8.50;7.87;;;28.40;34.50;;;;;;20567;6817;307357;-84
2023/05/21 12:14:02;;;;;;;7.70;7.10;;;28.40;33.90;;;;;;20585;6817;336078;-81
2023/05/21 12:16:28;;;;;;;8.10;7.47;;;28.50;34.30;;;;;;20839;6802;116875;-80
2023/05/21 12:18:56;;;;;;;7.97;7.18;;;28.50;34.70;;;;;;20825;6818;117006;-83
2023/05/21 12:21:20;;;;;;;8.03;7.43;;;28.30;34.90;;;;;;20787;6817;149621;-84
2023/05/21 12:23:46;;;;;;;8.75;8.10;;;28.20;35.00;;;;;;20666;6803;279374;-80
2023/05/21 12:26:14;;;;;;;8.30;7.80;;;28.60;34.40;;;;;;20624;6818;311535;-81
2023/05/21 12:28:40;;;;;;;8.30;7.80;;;28.60;34.40;;;;;;20606;6818;276778;-82
2023/05/21 12:31:05;;;;;;;8.00;7.50;;;28.80;34.80;;;;;;20655;6803;306322;-82